Time,TemperatureF,DewpointF,PressureIn,WindDirection,WindDirectionDegrees,WindSpeedMPH,WindSpeedGustMPH,Humidity,HourlyPrecipIn,Conditions,Clouds,dailyrainin,SolarRadiationWatts/m^2,SoftwareType,DateUTC
2013-03-18 00:13:00,5.0,2.0,-100.00,WNW,294,1.0,2.0,86,0.00,,,0.00,1.000000,,2013-03-18 04:13:00,
2013-03-18 00:23:00,5.0,2.0,-100.00,WNW,294,1.0,2.0,86,0.00,,,0.00,1.000000,,2013-03-18 04:23:00,
2013-03-18 00:33:00,5.0,2.0,-100.00,WNW,294,1.0,2.0,86,0.00,,,0.00,1.000000,,2013-03-18 04:33:00,
2013-03-18 00:42:00,5.0,2.0,-100.00,WNW,294,1.0,2.0,86,0.00,,,0.00,1.000000,,2013-03-18 04:42:00,
2013-03-18 01:12:00,4.0,0.0,-100.00,SW,235,0.0,2.0,84,0.00,,,0.00,0.000000,,2013-03-18 05:12:00,
2013-03-18 01:22:00,4.0,0.0,-100.00,SW,235,0.0,2.0,84,0.00,,,0.00,0.000000,,2013-03-18 05:22:00,
2013-03-18 01:32:00,4.0,0.0,-100.00,SW,235,0.0,2.0,84,0.00,,,0.00,0.000000,,2013-03-18 05:32:00,
2013-03-18 01:43:00,4.0,0.0,-100.00,SW,235,0.0,2.0,84,0.00,,,0.00,0.000000,,2013-03-18 05:43:00,
2013-03-18 02:12:00,2.0,-2.0,-100.00,WNW,303,1.0,2.0,83,0.00,,,0.00,1.000000,,2013-03-18 06:12:00,
2013-03-18 02:22:00,2.0,-2.0,-100.00,WNW,303,1.0,2.0,83,0.00,,,0.00,1.000000,,2013-03-18 06:22:00,
2013-03-18 02:32:00,2.0,-2.0,-100.00,WNW,303,1.0,2.0,83,0.00,,,0.00,1.000000,,2013-03-18 06:32:00,
2013-03-18 02:42:00,2.0,-2.0,-100.00,WNW,303,1.0,2.0,83,0.00,,,0.00,1.000000,,2013-03-18 06:42:00,
2013-03-18 03:13:00,1.0,-3.0,-100.00,North,0,1.0,2.0,82,0.00,,,0.00,1.000000,,2013-03-18 07:13:00,
2013-03-18 03:23:00,1.0,-3.0,-100.00,North,0,1.0,2.0,82,0.00,,,0.00,1.000000,,2013-03-18 07:23:00,
2013-03-18 03:33:00,1.0,-3.0,-100.00,North,0,1.0,2.0,82,0.00,,,0.00,1.000000,,2013-03-18 07:33:00,
2013-03-18 03:42:00,1.0,-3.0,-100.00,North,0,1.0,2.0,82,0.00,,,0.00,1.000000,,2013-03-18 07:42:00,
2013-03-18 04:12:00,1.0,-3.0,-100.00,WNW,295,1.0,3.0,81,0.00,,,0.00,0.000000,,2013-03-18 08:12:00,
2013-03-18 04:22:00,1.0,-3.0,-100.00,WNW,295,1.0,3.0,81,0.00,,,0.00,0.000000,,2013-03-18 08:22:00,
2013-03-18 04:32:00,1.0,-3.0,-100.00,WNW,295,1.0,3.0,81,0.00,,,0.00,0.000000,,2013-03-18 08:32:00,
2013-03-18 04:43:00,1.0,-3.0,-100.00,WNW,295,1.0,3.0,81,0.00,,,0.00,0.000000,,2013-03-18 08:43:00,
2013-03-18 05:13:00,1.0,-3.0,-100.00,WNW,290,1.0,2.0,81,0.00,,,0.00,0.000000,,2013-03-18 09:13:00,
2013-03-18 05:22:00,1.0,-3.0,-100.00,WNW,290,1.0,2.0,81,0.00,,,0.00,0.000000,,2013-03-18 09:22:00,
2013-03-18 05:33:00,1.0,-3.0,-100.00,WNW,290,1.0,2.0,81,0.00,,,0.00,0.000000,,2013-03-18 09:33:00,
2013-03-18 05:43:00,1.0,-3.0,-100.00,WNW,290,1.0,2.0,81,0.00,,,0.00,0.000000,,2013-03-18 09:43:00,
2013-03-18 06:13:00,1.0,-3.0,-100.00,North,356,0.0,2.0,81,0.00,,,0.00,0.000000,,2013-03-18 10:13:00,
2013-03-18 06:23:00,1.0,-3.0,-100.00,North,356,0.0,2.0,81,0.00,,,0.00,0.000000,,2013-03-18 10:23:00,
2013-03-18 06:33:00,1.0,-3.0,-100.00,North,356,0.0,2.0,81,0.00,,,0.00,0.000000,,2013-03-18 10:33:00,
2013-03-18 06:42:00,1.0,-3.0,-100.00,North,356,0.0,2.0,81,0.00,,,0.00,0.000000,,2013-03-18 10:42:00,
2013-03-18 07:13:00,2.0,-2.0,-100.00,West,275,0.0,2.0,81,0.00,,,0.00,0.000000,,2013-03-18 11:13:00,
2013-03-18 07:22:00,2.0,-2.0,-100.00,West,275,0.0,2.0,81,0.00,,,0.00,0.000000,,2013-03-18 11:22:00,
2013-03-18 07:32:00,2.0,-2.0,-100.00,West,275,0.0,2.0,81,0.00,,,0.00,0.000000,,2013-03-18 11:32:00,
2013-03-18 07:42:00,2.0,-2.0,-100.00,West,275,0.0,2.0,81,0.00,,,0.00,0.000000,,2013-03-18 11:42:00,
2013-03-18 08:13:00,19.0,17.0,-100.00,SE,125,4.0,7.0,93,0.00,,,0.00,1.000000,,2013-03-18 12:13:00,
2013-03-18 08:22:00,19.0,17.0,-100.00,SE,125,4.0,7.0,93,0.00,,,0.00,1.000000,,2013-03-18 12:22:00,
2013-03-18 08:33:00,19.0,17.0,-100.00,SE,125,4.0,7.0,93,0.00,,,0.00,1.000000,,2013-03-18 12:33:00,
2013-03-18 08:43:00,19.0,17.0,-100.00,SE,125,4.0,7.0,93,0.00,,,0.00,1.000000,,2013-03-18 12:43:00,
2013-03-18 09:12:00,23.0,18.0,-100.00,ESE,104,6.0,10.0,80,0.00,,,0.00,29.000000,,2013-03-18 13:12:00,
2013-03-18 09:22:00,23.0,18.0,-100.00,ESE,104,6.0,10.0,80,0.00,,,0.00,29.000000,,2013-03-18 13:22:00,
2013-03-18 09:33:00,23.0,18.0,-100.00,ESE,104,6.0,10.0,80,0.00,,,0.00,29.000000,,2013-03-18 13:33:00,
2013-03-18 09:42:00,23.0,18.0,-100.00,ESE,104,6.0,10.0,80,0.00,,,0.00,29.000000,,2013-03-18 13:42:00,
2013-03-18 10:12:00,28.0,19.0,-100.00,ESE,118,10.0,21.0,69,0.00,,,0.00,211.000000,,2013-03-18 14:12:00,
2013-03-18 10:22:00,28.0,19.0,-100.00,ESE,118,10.0,21.0,69,0.00,,,0.00,211.000000,,2013-03-18 14:22:00,
2013-03-18 10:32:00,28.0,19.0,-100.00,ESE,118,10.0,21.0,69,0.00,,,0.00,211.000000,,2013-03-18 14:32:00,
2013-03-18 10:42:00,28.0,19.0,-100.00,ESE,118,10.0,21.0,69,0.00,,,0.00,211.000000,,2013-03-18 14:42:00,
2013-03-18 11:12:00,29.0,20.0,-100.00,ESE,117,10.0,18.0,68,0.00,,,0.00,305.000000,,2013-03-18 15:12:00,
2013-03-18 11:23:00,29.0,20.0,-100.00,ESE,117,10.0,18.0,68,0.00,,,0.00,305.000000,,2013-03-18 15:23:00,
2013-03-18 11:33:00,29.0,20.0,-100.00,ESE,117,10.0,18.0,68,0.00,,,0.00,305.000000,,2013-03-18 15:33:00,
2013-03-18 11:43:00,29.0,20.0,-100.00,ESE,117,10.0,18.0,68,0.00,,,0.00,305.000000,,2013-03-18 15:43:00,
2013-03-18 12:12:00,33.0,20.0,-100.00,ESE,113,10.0,21.0,59,0.00,,,0.00,535.000000,,2013-03-18 16:12:00,
2013-03-18 12:23:00,33.0,20.0,-100.00,ESE,113,10.0,21.0,59,0.00,,,0.00,535.000000,,2013-03-18 16:23:00,
2013-03-18 12:33:00,33.0,20.0,-100.00,ESE,113,10.0,21.0,59,0.00,,,0.00,535.000000,,2013-03-18 16:33:00,
2013-03-18 12:42:00,33.0,20.0,-100.00,ESE,113,10.0,21.0,59,0.00,,,0.00,535.000000,,2013-03-18 16:42:00,
2013-03-18 13:12:00,33.0,19.0,-100.00,ESE,115,12.0,23.0,56,0.00,,,0.00,598.000000,,2013-03-18 17:12:00,
2013-03-18 13:22:00,33.0,19.0,-100.00,ESE,115,12.0,23.0,56,0.00,,,0.00,598.000000,,2013-03-18 17:22:00,
2013-03-18 13:33:00,33.0,19.0,-100.00,ESE,115,12.0,23.0,56,0.00,,,0.00,598.000000,,2013-03-18 17:33:00,
2013-03-18 13:42:00,33.0,19.0,-100.00,ESE,115,12.0,23.0,56,0.00,,,0.00,598.000000,,2013-03-18 17:42:00,
2013-03-18 14:13:00,32.0,18.0,-100.00,ESE,116,12.0,22.0,56,0.00,,,0.00,600.000000,,2013-03-18 18:13:00,
2013-03-18 14:22:00,32.0,18.0,-100.00,ESE,116,12.0,22.0,56,0.00,,,0.00,600.000000,,2013-03-18 18:22:00,
2013-03-18 14:32:00,32.0,18.0,-100.00,ESE,116,12.0,22.0,56,0.00,,,0.00,600.000000,,2013-03-18 18:32:00,
2013-03-18 14:42:00,32.0,18.0,-100.00,ESE,116,12.0,22.0,56,0.00,,,0.00,600.000000,,2013-03-18 18:42:00,
2013-03-18 15:12:00,31.0,20.0,-100.00,ESE,109,11.0,23.0,62,0.00,,,0.00,234.000000,,2013-03-18 19:12:00,
2013-03-18 15:22:00,31.0,20.0,-100.00,ESE,109,11.0,23.0,62,0.00,,,0.00,234.000000,,2013-03-18 19:22:00,
2013-03-18 15:33:00,31.0,20.0,-100.00,ESE,109,11.0,23.0,62,0.00,,,0.00,234.000000,,2013-03-18 19:33:00,
2013-03-18 15:42:00,31.0,20.0,-100.00,ESE,109,11.0,23.0,62,0.00,,,0.00,234.000000,,2013-03-18 19:42:00,
2013-03-18 16:12:00,32.0,23.0,-100.00,ESE,117,10.0,21.0,70,0.00,,,0.00,152.000000,,2013-03-18 20:12:00,
2013-03-18 16:23:00,32.0,23.0,-100.00,ESE,117,10.0,21.0,70,0.00,,,0.00,152.000000,,2013-03-18 20:23:00,
2013-03-18 16:33:00,32.0,23.0,-100.00,ESE,117,10.0,21.0,70,0.00,,,0.00,152.000000,,2013-03-18 20:33:00,
2013-03-18 16:42:00,32.0,23.0,-100.00,ESE,117,10.0,21.0,70,0.00,,,0.00,152.000000,,2013-03-18 20:42:00,
2013-03-18 17:12:00,30.0,28.0,-100.00,ESE,112,10.0,18.0,94,0.00,,,0.00,109.000000,,2013-03-18 21:12:00,
2013-03-18 17:22:00,30.0,28.0,-100.00,ESE,112,10.0,18.0,94,0.00,,,0.00,109.000000,,2013-03-18 21:22:00,
2013-03-18 17:33:00,30.0,28.0,-100.00,ESE,112,10.0,18.0,94,0.00,,,0.00,109.000000,,2013-03-18 21:33:00,
2013-03-18 17:43:00,30.0,28.0,-100.00,ESE,112,10.0,18.0,94,0.00,,,0.00,109.000000,,2013-03-18 21:43:00,
2013-03-18 18:13:00,30.0,29.0,-100.00,ESE,118,10.0,22.0,97,0.00,,,0.00,83.000000,,2013-03-18 22:13:00,
2013-03-18 18:23:00,30.0,29.0,-100.00,ESE,118,10.0,22.0,97,0.00,,,0.00,83.000000,,2013-03-18 22:23:00,
2013-03-18 18:33:00,30.0,29.0,-100.00,ESE,118,10.0,22.0,97,0.00,,,0.00,83.000000,,2013-03-18 22:33:00,
2013-03-18 18:42:00,30.0,29.0,-100.00,ESE,118,10.0,22.0,97,0.00,,,0.00,83.000000,,2013-03-18 22:42:00,
2013-03-18 19:13:00,29.0,28.0,-100.00,SE,129,11.0,23.0,96,0.00,,,0.00,68.000000,,2013-03-18 23:13:00,
2013-03-18 19:23:00,29.0,28.0,-100.00,SE,129,11.0,23.0,96,0.00,,,0.00,68.000000,,2013-03-18 23:23:00,
2013-03-18 19:33:00,29.0,28.0,-100.00,SE,129,11.0,23.0,96,0.00,,,0.00,68.000000,,2013-03-18 23:33:00,
2013-03-18 19:42:00,29.0,28.0,-100.00,SE,129,11.0,23.0,96,0.00,,,0.00,68.000000,,2013-03-18 23:42:00,
2013-03-18 20:12:00,29.0,29.0,-100.00,SE,129,9.0,19.0,98,0.00,,,0.00,9.000000,,2013-03-19 00:12:00,
2013-03-18 20:23:00,29.0,29.0,-100.00,SE,129,9.0,19.0,98,0.00,,,0.00,9.000000,,2013-03-19 00:23:00,
2013-03-18 20:32:00,29.0,29.0,-100.00,SE,129,9.0,19.0,98,0.00,,,0.00,9.000000,,2013-03-19 00:32:00,
2013-03-18 20:42:00,29.0,29.0,-100.00,SE,129,9.0,19.0,98,0.00,,,0.00,9.000000,,2013-03-19 00:42:00,
2013-03-18 21:12:00,28.0,28.0,-100.00,SE,128,9.0,18.0,99,0.00,,,0.00,1.000000,,2013-03-19 01:12:00,
2013-03-18 21:23:00,28.0,28.0,-100.00,SE,128,9.0,18.0,99,0.00,,,0.00,1.000000,,2013-03-19 01:23:00,
2013-03-18 21:33:00,28.0,28.0,-100.00,SE,128,9.0,18.0,99,0.00,,,0.00,1.000000,,2013-03-19 01:33:00,
2013-03-18 21:43:00,28.0,28.0,-100.00,SE,128,9.0,18.0,99,0.00,,,0.00,1.000000,,2013-03-19 01:43:00,
2013-03-18 22:13:00,28.0,28.0,-100.00,ESE,122,7.0,12.0,100,0.00,,,0.00,1.000000,,2013-03-19 02:13:00,
2013-03-18 22:23:00,28.0,28.0,-100.00,ESE,122,7.0,12.0,100,0.00,,,0.00,1.000000,,2013-03-19 02:23:00,
2013-03-18 22:33:00,28.0,28.0,-100.00,ESE,122,7.0,12.0,100,0.00,,,0.00,1.000000,,2013-03-19 02:33:00,
2013-03-18 22:42:00,28.0,28.0,-100.00,ESE,122,7.0,12.0,100,0.00,,,0.00,1.000000,,2013-03-19 02:42:00,
2013-03-18 23:13:00,29.0,29.0,-100.00,SE,132,4.0,10.0,100,0.00,,,0.00,1.000000,,2013-03-19 03:13:00,
2013-03-18 23:23:00,29.0,29.0,-100.00,SE,132,4.0,10.0,100,0.00,,,0.00,1.000000,,2013-03-19 03:23:00,
2013-03-18 23:33:00,29.0,29.0,-100.00,SE,132,4.0,10.0,100,0.00,,,0.00,1.000000,,2013-03-19 03:33:00,
2013-03-18 23:43:00,29.0,29.0,-100.00,SE,132,4.0,10.0,100,0.00,,,0.00,1.000000,,2013-03-19 03:43:00,